• Join FlightAware (Why Join?)
  • Login
  • US Flag 
08:08PM EDT


 

Airport Tracker/Info


-or-


 

Live Flight TrackerFlight Track Log ✈ AIP5014 ✈ 14-Feb-2014 ✈ KBIL - KMSO

Flight Track Log - Related Links

Times and Time Zones

All times are in EST time to prevent confusion due to time zone crossing. See the AIP5014 flight status page for this flight to view local times or setup timezone preferences in your user account.

Time Position Orientation Groundspeed Altitude Reporting Facility
EST Latitude Longitude Course Direction KTS MPH feet Rate Location/Type
03:12AM 45.8433 -108.6689 287° West 145 167 7,900  Level Salt Lake Center
03:13AM 45.8558 -108.7339 285° West 166 191 9,000 1,080 Climbing Salt Lake Center
03:14AM 45.8672 -108.8028 283° West 177 204 10,100 1,140 Climbing Salt Lake Center
03:15AM 45.8808 -108.8708 286° West 176 203 11,400 1,200 Climbing Salt Lake Center
03:16AM 45.9159 -109.0407 287° West  Level FlightAware Approximate
03:16AM 45.9050 -108.9411 296° West 194 223 12,600  Level Salt Lake Center
03:17AM 45.9337 -109.1238 287° West  Level FlightAware Approximate
03:17AM 45.9158 -109.0072 283° West 175 201 14,100  Level Salt Lake Center
03:18AM 45.9219 -109.0792 277° West 182 209 14,900 720 Climbing Salt Lake Center
03:19AM 45.9350 -109.1514 285° West 187 215 15,600 480 Climbing Salt Lake Center
03:20AM 45.9511 -109.2247 288° West 194 223 15,900 240 Climbing Salt Lake Center
03:21AM 45.9744 -109.3097 292° West 210 242 16,100 120 Climbing Salt Lake Center
03:22AM 45.9936 -109.3892 289° West 213 245 16,200 -60 Climbing Salt Lake Center
03:23AM 46.0111 -109.4675 288° West 210 242 16,000 -60 Descending Salt Lake Center
03:24AM 46.0294 -109.5478 288° West 211 243 16,100  Climbing Salt Lake Center
03:25AM 46.0469 -109.6239 288° West 204 235 16,100  Level Salt Lake Center
03:26AM 46.0714 -109.7058 293° West 209 241 16,100  Level Salt Lake Center
03:27AM 46.0850 -109.7875 284° West 213 245 16,100  Level Salt Lake Center
03:28AM 46.1011 -109.8644 287° West 220 253 16,100  Level Salt Lake Center
03:29AM 46.1233 -109.9494 291° West 225 259 16,100  Level Salt Lake Center
03:30AM 46.1403 -110.0350 286° West 224 258 16,100  Level Salt Lake Center
03:31AM 46.1581 -110.1186 287° West 221 254 16,100  Level Salt Lake Center
03:32AM 46.1742 -110.2033 285° West 220 253 16,100 -60 Level Salt Lake Center
03:33AM 46.1894 -110.2869 285° West 218 251 16,000 -120 Descending Salt Lake Center
03:34AM 46.2072 -110.3647 288° West 212 244 15,900  Descending Salt Lake Center
03:35AM 46.2225 -110.4472 285° West 211 243 16,100  Climbing Salt Lake Center
03:36AM 46.2394 -110.5300 287° West 214 246 16,000 -60 Descending Salt Lake Center
03:37AM 46.2581 -110.6111 288° West 215 247 16,000 -60 Level Salt Lake Center
03:38AM 46.2747 -110.6939 286° West 215 247 15,900 -60 Descending Salt Lake Center
03:39AM 46.2931 -110.7772 288° West 217 250 15,900  Level Salt Lake Center
03:40AM 46.3150 -110.8758 288° West 216 249 15,900  Level Salt Lake Center
03:41AM 46.3331 -110.9581 288° West 216 249 16,000  Climbing Salt Lake Center
03:42AM 46.3478 -111.0369 285° West 218 251 15,900 -60 Descending Salt Lake Center
03:43AM 46.3644 -111.1253 285° West 223 257 15,900  Level Salt Lake Center
03:44AM 46.3781 -111.2164 282° West 227 261 16,000  Climbing Salt Lake Center
03:45AM 46.4006 -111.3031 291° West 227 261 16,000 -60 Level Salt Lake Center
03:46AM 46.4208 -111.3883 289° West 221 254 15,900 -60 Descending Salt Lake Center
03:47AM 46.4369 -111.4758 285° West 221 254 15,900 60 Level Salt Lake Center
03:48AM 46.4486 -111.5481 283° West 220 253 16,100  Climbing Salt Lake Center
03:49AM 46.4647 -111.6344 285° West 221 254 16,000  Descending Salt Lake Center
03:50AM 46.4803 -111.7206 285° West 221 254 16,100 -60 Climbing Salt Lake Center
03:51AM 46.4961 -111.8036 286° West 216 249 15,900 -120 Descending Salt Lake Center
03:52AM 46.5103 -111.8872 284° West 215 247 15,900 60 Level Salt Lake Center
03:53AM 46.5286 -111.9717 288° West 219 252 16,100  Climbing Salt Lake Center
03:54AM 46.5472 -112.0556 288° West 218 251 16,000  Descending Salt Lake Center
03:55AM 46.5619 -112.1400 284° West 218 251 16,100  Climbing Salt Lake Center
03:56AM 46.5775 -112.2242 285° West 216 249 16,000 -60 Descending Salt Lake Center
03:57AM 46.5892 -112.3094 281° West 216 249 16,000  Level Salt Lake Center
03:58AM 46.6008 -112.3919 282° West 210 242 16,100  Climbing Salt Lake Center
03:59AM 46.6175 -112.4672 288° West 199 229 16,000 -60 Descending Salt Lake Center
04:00AM 46.6358 -112.5419 290° West 197 227 16,000 -120 Level Salt Lake Center
04:01AM 46.6519 -112.6175 287° West 196 226 15,800 -300 Descending Salt Lake Center
04:02AM 46.6661 -112.6967 285° West 200 230 15,400 -480 Descending Salt Lake Center
04:03AM 46.6836 -112.7950 285° West 208 239 14,900 -540 Descending Salt Lake Center
04:04AM 46.6986 -112.8758 285° West 208 239 14,400 -660 Descending Salt Lake Center
04:05AM 46.7128 -112.9569 284° West 206 237 13,600 -600 Descending Salt Lake Center
04:06AM 46.7281 -113.0442 284° West 212 244 13,200 -480 Descending Salt Lake Center
04:07AM 46.7450 -113.1336 285° West 219 252 12,700 -540 Descending Salt Lake Center
04:08AM 46.7611 -113.2236 285° West 224 258 12,200 -360 Descending Salt Lake Center
04:09AM 46.7758 -113.3025 285° West 224 258 12,000 -420 Descending Salt Lake Center
04:10AM 46.8014 -113.4156 288° West 199 229 11,400 -600 Descending Salt Lake Center
04:11AM 46.8169 -113.5044 284° West 228 262 10,700 -600 Descending Salt Lake Center
04:12AM 46.8300 -113.5956 282° West 229 264 10,300 -480 Descending Salt Lake Center
04:13AM 46.8414 -113.6942 280° West 229 264 9,800 -600 Descending Salt Lake Center
04:14AM 46.8536 -113.7836 281° West 226 260 9,200 -720 Descending Salt Lake Center
04:15AM 46.8642 -113.8783 279° West 235 270 8,400 -1,260 Descending Salt Lake Center
04:16AM 46.8689 -113.9725 274° West 231 266 6,700 -2,100 Descending Salt Lake Center
04:17AM 46.8858 -114.0392 290° West 183 211 4,300 -1,800 Descending Salt Lake Center
04:18AM 46.9117 -114.0847 310° West 150 173 3,200 -1,140 Descending Salt Lake Center